Saire, Brazil
Current Conditions -  °F | °C
As of 3:00 PM on Friday 31 Oct 2014 (Local Time) from SBRF Reporting Station
Light Rain Light Rain  
Wind Chill: 79°   Ceiling: 6000
Heat Index: 82°   Visibility: 4mi
Dew Point: 73°   Wind: 8mph
Humidity: 83%   Direction: 110°ESE
Pressure: 29.91"   Gusts: NA
Location:  8.33°S, 35.64°W
Report Text: SBRF 311800Z 11007KT 7000 -RA SCT015 BKN060 26/23 Q1013
Loading
Personal Weather Stations






























Interactive Weather Map
Tropical Storm Tracking
New forecast layout! Learn more

10-Day Weather Forecast

Advertisements
Track Severe Weather on mobile